KWVI/WVI METAR and TAF weather

Enter ICAO airport designator
Station Type Date Time Source
KWVI METAR 2020/11/25 21:53 UTC NOAA

KWVI 252153Z AUTO 21005KT 10SM CLR 15/08 A3018 RMK AO2 SLP218 T01500083


Station Type Date Time Source
KWVI Decoded METAR 2020/11/25 21:53 UTC NOAA

WATSONVILLE MUNICIPAL AIRPORT , CA, United States (KWVI) 36-56N 121-47W 43M
Nov 25, 2020 - 04:53 PM EST / 2020.11.25 2153 UTC
Wind: from the SSW (210 degrees) at 6 MPH (5 KT):0
Visibility: 10 mile(s):0
Sky conditions: clear
Temperature: 59.0 F (15.0 C)
Dew Point: 46.9 F (8.3 C)
Relative Humidity: 64%
Pressure (altimeter): 30.18 in. Hg (1022 hPa)
ob: KWVI 252153Z AUTO 21005KT 10SM CLR 15/08 A3018 RMK AO2 SLP218 T01500083
cycle: 22

Station Type Date Time Source
KWVI TAF UTC NOAA

Error!

Example: see airport list